Time,TemperatureF,DewpointF,PressureIn,WindDirection,WindDirectionDegrees,WindSpeedMPH,WindSpeedGustMPH,Humidity,HourlyPrecipIn,Conditions,Clouds,dailyrainin,SoftwareType,DateUTC
2013-01-01 00:03:00,50.0,30.0,30.23,South,191,3.0,6.0,46,0.00,,,0.00,,2013-01-01 05:03:00,
2013-01-01 00:12:00,50.0,30.0,30.23,South,191,3.0,6.0,46,0.00,,,0.00,,2013-01-01 05:12:00,
2013-01-01 00:22:00,50.0,29.0,30.21,NW,309,3.0,5.0,45,0.00,,,0.00,,2013-01-01 05:22:00,
2013-01-01 00:33:00,50.0,31.0,30.21,SSW,212,4.0,6.0,47,0.00,,,0.00,,2013-01-01 05:33:00,
2013-01-01 00:42:00,50.0,31.0,30.21,SSW,212,4.0,6.0,47,0.00,,,0.00,,2013-01-01 05:42:00,
2013-01-01 00:53:00,50.0,30.0,30.20,West,271,5.0,8.0,46,0.00,,,0.00,,2013-01-01 05:53:00,
2013-01-01 01:02:00,50.0,29.0,30.19,NE,46,2.0,5.0,45,0.00,,,0.00,,2013-01-01 06:02:00,
2013-01-01 01:12:00,50.0,29.0,30.19,NE,46,2.0,5.0,45,0.00,,,0.00,,2013-01-01 06:12:00,
2013-01-01 01:22:00,50.0,29.0,30.18,North,1,2.0,3.0,44,0.00,,,0.00,,2013-01-01 06:22:00,
2013-01-01 01:32:00,49.0,29.0,30.16,ENE,73,1.0,3.0,45,0.00,,,0.00,,2013-01-01 06:32:00,
2013-01-01 01:42:00,49.0,29.0,30.16,ENE,73,1.0,3.0,45,0.00,,,0.00,,2013-01-01 06:42:00,
2013-01-01 01:52:00,49.0,29.0,30.18,NW,304,3.0,5.0,46,0.00,,,0.00,,2013-01-01 06:52:00,
2013-01-01 02:02:00,49.0,29.0,30.18,WSW,257,3.0,4.0,46,0.00,,,0.00,,2013-01-01 07:02:00,
2013-01-01 02:12:00,49.0,30.0,30.16,SW,235,3.0,4.0,48,0.00,,,0.00,,2013-01-01 07:12:00,
2013-01-01 02:22:00,49.0,30.0,30.16,SW,235,3.0,4.0,48,0.00,,,0.00,,2013-01-01 07:22:00,
2013-01-01 02:32:00,49.0,31.0,30.17,WSW,250,2.0,3.0,50,0.00,,,0.00,,2013-01-01 07:32:00,
2013-01-01 02:42:00,49.0,31.0,30.17,WSW,250,2.0,3.0,50,0.00,,,0.00,,2013-01-01 07:42:00,
2013-01-01 02:52:00,49.0,31.0,30.16,South,183,1.0,2.0,49,0.00,,,0.00,,2013-01-01 07:52:00,
2013-01-01 03:02:00,49.0,31.0,30.17,SSW,194,0.0,0.0,50,0.00,,,0.00,,2013-01-01 08:02:00,
2013-01-01 03:12:00,49.0,31.0,30.17,SSW,194,0.0,0.0,50,0.00,,,0.00,,2013-01-01 08:12:00,
2013-01-01 03:22:00,49.0,31.0,30.18,SSW,194,0.0,0.0,50,0.00,,,0.00,,2013-01-01 08:22:00,
2013-01-01 03:32:00,49.0,32.0,30.17,SE,127,0.0,0.0,51,0.00,,,0.00,,2013-01-01 08:32:00,
2013-01-01 03:42:00,49.0,33.0,30.17,NE,53,2.0,4.0,53,0.00,,,0.00,,2013-01-01 08:42:00,
2013-01-01 03:53:00,49.0,33.0,30.17,NE,53,2.0,4.0,53,0.00,,,0.00,,2013-01-01 08:53:00,
2013-01-01 04:02:00,49.0,32.0,30.16,South,173,0.0,2.0,52,0.00,,,0.00,,2013-01-01 09:02:00,
2013-01-01 04:12:00,49.0,32.0,30.16,South,173,0.0,2.0,52,0.00,,,0.00,,2013-01-01 09:12:00,
2013-01-01 04:22:00,49.0,32.0,30.16,SW,226,1.0,4.0,52,0.00,,,0.00,,2013-01-01 09:22:00,
2013-01-01 04:32:00,49.0,32.0,30.16,NNW,332,4.0,7.0,52,0.00,,,0.00,,2013-01-01 09:32:00,
2013-01-01 04:42:00,49.0,32.0,30.16,NNW,332,4.0,7.0,52,0.00,,,0.00,,2013-01-01 09:42:00,
2013-01-01 04:52:00,49.0,34.0,30.16,SW,222,6.0,9.0,55,0.00,,,0.00,,2013-01-01 09:52:00,
2013-01-01 05:02:00,49.0,36.0,30.15,West,273,3.0,4.0,60,0.00,,,0.00,,2013-01-01 10:02:00,
2013-01-01 05:12:00,50.0,38.0,30.15,WSW,250,5.0,8.0,64,0.00,,,0.00,,2013-01-01 10:12:00,
2013-01-01 05:22:00,50.0,38.0,30.15,WSW,250,5.0,8.0,64,0.00,,,0.00,,2013-01-01 10:22:00,
2013-01-01 05:33:00,50.0,39.0,30.15,West,281,3.0,8.0,66,0.00,,,0.00,,2013-01-01 10:33:00,
2013-01-01 05:42:00,50.0,39.0,30.15,West,281,3.0,8.0,66,0.00,,,0.00,,2013-01-01 10:42:00,
2013-01-01 05:52:00,50.0,40.0,30.15,NNW,345,2.0,6.0,68,0.00,,,0.00,,2013-01-01 10:52:00,
2013-01-01 06:02:00,50.0,41.0,30.15,SSW,195,2.0,4.0,70,0.00,,,0.00,,2013-01-01 11:02:00,
2013-01-01 06:12:00,50.0,41.0,30.15,SSW,195,2.0,4.0,70,0.00,,,0.00,,2013-01-01 11:12:00,
2013-01-01 06:23:00,50.0,40.0,30.15,South,190,4.0,13.0,69,0.00,,,0.00,,2013-01-01 11:23:00,
2013-01-01 06:33:00,50.0,41.0,30.16,SSW,210,1.0,3.0,70,0.00,,,0.00,,2013-01-01 11:33:00,
2013-01-01 06:42:00,50.0,41.0,30.16,SSW,210,1.0,3.0,70,0.00,,,0.00,,2013-01-01 11:42:00,
2013-01-01 06:53:00,50.0,39.0,30.17,North,4,0.0,0.0,65,0.00,,,0.00,,2013-01-01 11:53:00,
2013-01-01 07:02:00,49.0,40.0,30.18,South,170,0.0,1.0,70,0.00,,,0.00,,2013-01-01 12:02:00,
2013-01-01 07:12:00,49.0,40.0,30.18,South,170,0.0,1.0,70,0.00,,,0.00,,2013-01-01 12:12:00,
2013-01-01 07:22:00,49.0,37.0,30.18,WNW,294,1.0,2.0,62,0.00,,,0.00,,2013-01-01 12:22:00,
2013-01-01 07:33:00,50.0,36.0,30.19,WSW,246,0.0,0.0,59,0.00,,,0.00,,2013-01-01 12:33:00,
2013-01-01 07:43:00,50.0,36.0,30.19,WSW,246,0.0,0.0,59,0.00,,,0.00,,2013-01-01 12:43:00,
2013-01-01 07:52:00,49.0,34.0,30.20,South,184,3.0,5.0,56,0.00,,,0.00,,2013-01-01 12:52:00,
2013-01-01 08:03:00,49.0,33.0,30.20,West,269,4.0,5.0,53,0.00,,,0.00,,2013-01-01 13:03:00,
2013-01-01 08:12:00,49.0,33.0,30.20,West,269,4.0,5.0,53,0.00,,,0.00,,2013-01-01 13:12:00,
2013-01-01 08:22:00,48.0,32.0,30.20,West,260,3.0,4.0,53,0.00,,,0.00,,2013-01-01 13:22:00,
2013-01-01 08:33:00,49.0,33.0,30.19,South,177,0.0,1.0,53,0.00,,,0.00,,2013-01-01 13:33:00,
2013-01-01 08:43:00,49.0,33.0,30.19,South,177,0.0,1.0,53,0.00,,,0.00,,2013-01-01 13:43:00,
2013-01-01 08:52:00,48.0,34.0,30.19,NE,39,0.0,0.0,59,0.00,,,0.00,,2013-01-01 13:52:00,
2013-01-01 09:02:00,47.0,39.0,30.21,NNE,18,0.0,0.0,75,0.00,,,0.00,,2013-01-01 14:02:00,
2013-01-01 09:12:00,47.0,39.0,30.21,NNE,18,0.0,0.0,75,0.00,,,0.00,,2013-01-01 14:12:00,
2013-01-01 09:22:00,46.0,44.0,30.20,NNE,17,0.0,0.0,92,0.00,,,0.01,,2013-01-01 14:22:00,
2013-01-01 09:32:00,44.0,43.0,30.20,WNW,293,0.0,0.0,95,0.00,,,0.01,,2013-01-01 14:32:00,
2013-01-01 09:42:00,44.0,43.0,30.20,WNW,293,0.0,0.0,95,0.00,,,0.01,,2013-01-01 14:42:00,
2013-01-01 09:53:00,44.0,43.0,30.21,WNW,293,0.0,0.0,97,0.00,,,0.01,,2013-01-01 14:53:00,
2013-01-01 10:03:00,44.0,43.0,30.21,WNW,293,0.0,0.0,97,0.00,,,0.01,,2013-01-01 15:03:00,
2013-01-01 10:12:00,44.0,43.0,30.20,WNW,293,0.0,0.0,97,0.00,,,0.02,,2013-01-01 15:12:00,
2013-01-01 10:22:00,44.0,43.0,30.20,WNW,293,0.0,0.0,97,0.00,,,0.02,,2013-01-01 15:22:00,
2013-01-01 10:33:00,44.0,43.0,30.21,WNW,293,0.0,0.0,98,0.00,,,0.02,,2013-01-01 15:33:00,
2013-01-01 10:42:00,44.0,43.0,30.21,WNW,293,0.0,0.0,98,0.00,,,0.02,,2013-01-01 15:42:00,
2013-01-01 10:53:00,44.0,44.0,30.21,WNW,293,0.0,0.0,99,0.00,,,0.02,,2013-01-01 15:53:00,
2013-01-01 11:02:00,45.0,45.0,30.20,WNW,293,0.0,0.0,100,0.00,,,0.02,,2013-01-01 16:02:00,
2013-01-01 11:12:00,45.0,45.0,30.20,WNW,293,0.0,0.0,100,0.00,,,0.02,,2013-01-01 16:12:00,
2013-01-01 11:22:00,45.0,45.0,30.19,WNW,293,0.0,0.0,100,0.00,,,0.02,,2013-01-01 16:22:00,
2013-01-01 11:33:00,46.0,46.0,30.19,WNW,293,0.0,0.0,100,0.00,,,0.02,,2013-01-01 16:33:00,
2013-01-01 11:42:00,46.0,46.0,30.19,WNW,293,0.0,0.0,100,0.00,,,0.02,,2013-01-01 16:42:00,
2013-01-01 11:52:00,46.0,46.0,30.18,WNW,293,0.0,0.0,99,0.00,,,0.02,,2013-01-01 16:52:00,
2013-01-01 12:02:00,46.0,46.0,30.18,WNW,293,0.0,0.0,100,0.00,,,0.03,,2013-01-01 17:02:00,
2013-01-01 12:12:00,46.0,46.0,30.18,WNW,293,0.0,0.0,100,0.00,,,0.03,,2013-01-01 17:12:00,
2013-01-01 12:22:00,47.0,47.0,30.16,WNW,293,0.0,0.0,100,0.00,,,0.03,,2013-01-01 17:22:00,
2013-01-01 12:33:00,47.0,47.0,30.16,WNW,293,0.0,0.0,99,0.00,,,0.03,,2013-01-01 17:33:00,
2013-01-01 12:43:00,47.0,47.0,30.16,WNW,293,0.0,0.0,99,0.00,,,0.03,,2013-01-01 17:43:00,
2013-01-01 12:52:00,47.0,47.0,30.15,SSW,194,0.0,1.0,100,0.00,,,0.04,,2013-01-01 17:52:00,
2013-01-01 13:03:00,47.0,47.0,30.14,SSW,194,0.0,0.0,100,0.00,,,0.06,,2013-01-01 18:03:00,
2013-01-01 13:12:00,47.0,47.0,30.14,SSW,194,0.0,0.0,100,0.00,,,0.06,,2013-01-01 18:12:00,
2013-01-01 13:23:00,48.0,48.0,30.14,SSW,194,0.0,0.0,100,0.00,,,0.07,,2013-01-01 18:23:00,
2013-01-01 13:33:00,48.0,48.0,30.14,SSW,194,0.0,0.0,100,0.00,,,0.09,,2013-01-01 18:33:00,
2013-01-01 13:42:00,48.0,48.0,30.14,SSW,194,0.0,0.0,100,0.00,,,0.09,,2013-01-01 18:42:00,
2013-01-01 13:52:00,48.0,48.0,30.14,SSW,194,0.0,0.0,100,0.00,,,0.09,,2013-01-01 18:52:00,
2013-01-01 14:02:00,48.0,48.0,30.11,South,183,0.0,0.0,100,0.00,,,0.13,,2013-01-01 19:02:00,
2013-01-01 14:12:00,48.0,48.0,30.11,South,183,0.0,0.0,100,0.00,,,0.13,,2013-01-01 19:12:00,
2013-01-01 14:22:00,48.0,48.0,30.12,South,183,0.0,0.0,100,0.00,,,0.14,,2013-01-01 19:22:00,
2013-01-01 14:33:00,48.0,48.0,30.11,South,183,0.0,0.0,100,0.00,,,0.15,,2013-01-01 19:33:00,
2013-01-01 14:42:00,48.0,48.0,30.11,South,183,0.0,0.0,100,0.00,,,0.15,,2013-01-01 19:42:00,
2013-01-01 14:52:00,48.0,48.0,30.10,South,183,0.0,0.0,100,0.00,,,0.16,,2013-01-01 19:52:00,
2013-01-01 15:02:00,48.0,48.0,30.10,South,183,0.0,0.0,100,0.00,,,0.17,,2013-01-01 20:02:00,
2013-01-01 15:12:00,48.0,48.0,30.10,South,183,0.0,0.0,100,0.00,,,0.17,,2013-01-01 20:12:00,
2013-01-01 15:23:00,48.0,48.0,30.09,South,183,0.0,0.0,100,0.00,,,0.18,,2013-01-01 20:23:00,
2013-01-01 15:32:00,48.0,48.0,30.09,South,183,0.0,0.0,100,0.00,,,0.18,,2013-01-01 20:32:00,
2013-01-01 15:42:00,48.0,48.0,30.09,South,183,0.0,0.0,100,0.00,,,0.18,,2013-01-01 20:42:00,
2013-01-01 15:52:00,49.0,49.0,30.09,South,183,0.0,0.0,100,0.00,,,0.19,,2013-01-01 20:52:00,
2013-01-01 16:03:00,49.0,49.0,30.10,South,183,0.0,0.0,100,0.00,,,0.19,,2013-01-01 21:03:00,
2013-01-01 16:13:00,49.0,49.0,30.11,South,183,0.0,0.0,100,0.00,,,0.20,,2013-01-01 21:13:00,
2013-01-01 16:22:00,49.0,49.0,30.11,South,183,0.0,0.0,100,0.00,,,0.20,,2013-01-01 21:22:00,
2013-01-01 16:33:00,49.0,49.0,30.10,South,183,0.0,0.0,100,0.00,,,0.20,,2013-01-01 21:33:00,
2013-01-01 16:42:00,49.0,49.0,30.10,South,183,0.0,0.0,100,0.00,,,0.20,,2013-01-01 21:42:00,
2013-01-01 16:53:00,49.0,49.0,30.11,South,183,0.0,0.0,100,0.00,,,0.21,,2013-01-01 21:53:00,
2013-01-01 17:03:00,49.0,49.0,30.11,South,183,0.0,0.0,100,0.00,,,0.21,,2013-01-01 22:03:00,
2013-01-01 17:12:00,49.0,49.0,30.11,South,183,0.0,0.0,100,0.00,,,0.21,,2013-01-01 22:12:00,
2013-01-01 17:22:00,49.0,49.0,30.11,South,183,0.0,0.0,100,0.00,,,0.21,,2013-01-01 22:22:00,
2013-01-01 17:33:00,48.0,48.0,30.11,South,183,0.0,0.0,100,0.00,,,0.21,,2013-01-01 22:33:00,
2013-01-01 17:42:00,48.0,48.0,30.11,South,183,0.0,0.0,100,0.00,,,0.21,,2013-01-01 22:42:00,
2013-01-01 17:52:00,48.0,48.0,30.11,South,183,0.0,0.0,100,0.00,,,0.22,,2013-01-01 22:52:00,
2013-01-01 18:03:00,48.0,48.0,30.10,South,183,0.0,0.0,100,0.00,,,0.22,,2013-01-01 23:03:00,
2013-01-01 18:12:00,48.0,48.0,30.10,South,183,0.0,0.0,100,0.00,,,0.22,,2013-01-01 23:12:00,
2013-01-01 18:22:00,48.0,48.0,30.10,South,183,0.0,0.0,100,0.00,,,0.23,,2013-01-01 23:22:00,
2013-01-01 18:32:00,48.0,48.0,30.10,South,183,0.0,0.0,100,0.00,,,0.23,,2013-01-01 23:32:00,
2013-01-01 18:42:00,48.0,48.0,30.10,South,183,0.0,0.0,100,0.00,,,0.23,,2013-01-01 23:42:00,
2013-01-01 18:53:00,48.0,48.0,30.08,South,183,0.0,0.0,100,0.00,,,0.24,,2013-01-01 23:53:00,
2013-01-01 19:02:00,48.0,48.0,30.10,South,183,0.0,0.0,100,0.00,,,0.24,,2013-01-02 00:02:00,
2013-01-01 19:12:00,48.0,48.0,30.10,South,183,0.0,0.0,100,0.00,,,0.24,,2013-01-02 00:12:00,
2013-01-01 19:22:00,48.0,48.0,30.11,South,183,0.0,0.0,100,0.00,,,0.25,,2013-01-02 00:22:00,
2013-01-01 19:32:00,48.0,48.0,30.12,South,183,0.0,0.0,100,0.00,,,0.26,,2013-01-02 00:32:00,
2013-01-01 19:42:00,48.0,48.0,30.12,South,183,0.0,0.0,100,0.00,,,0.26,,2013-01-02 00:42:00,
2013-01-01 19:53:00,48.0,48.0,30.10,SE,139,0.0,0.0,100,0.00,,,0.28,,2013-01-02 00:53:00,
2013-01-01 20:02:00,48.0,48.0,30.10,SE,139,0.0,0.0,100,0.00,,,0.29,,2013-01-02 01:02:00,
2013-01-01 20:12:00,48.0,48.0,30.10,SE,139,0.0,0.0,100,0.00,,,0.29,,2013-01-02 01:12:00,
2013-01-01 20:22:00,48.0,48.0,30.10,SE,139,0.0,0.0,100,0.00,,,0.29,,2013-01-02 01:22:00,
2013-01-01 20:32:00,48.0,48.0,30.11,SE,139,0.0,0.0,100,0.00,,,0.30,,2013-01-02 01:32:00,
2013-01-01 20:42:00,48.0,48.0,30.11,SE,139,0.0,0.0,100,0.00,,,0.30,,2013-01-02 01:42:00,
2013-01-01 20:52:00,48.0,48.0,30.09,SE,139,0.0,0.0,100,0.00,,,0.30,,2013-01-02 01:52:00,
2013-01-01 21:02:00,48.0,48.0,30.08,SE,139,0.0,0.0,100,0.00,,,0.31,,2013-01-02 02:02:00,
2013-01-01 21:12:00,48.0,48.0,30.08,SE,139,0.0,0.0,100,0.00,,,0.31,,2013-01-02 02:12:00,
2013-01-01 21:22:00,48.0,48.0,30.09,SE,139,0.0,0.0,100,0.00,,,0.31,,2013-01-02 02:22:00,
2013-01-01 21:32:00,48.0,48.0,30.09,SE,139,0.0,0.0,100,0.00,,,0.31,,2013-01-02 02:32:00,
2013-01-01 21:42:00,48.0,48.0,30.09,SE,139,0.0,0.0,100,0.00,,,0.31,,2013-01-02 02:42:00,
2013-01-01 21:52:00,48.0,48.0,30.09,SE,139,0.0,0.0,100,0.00,,,0.33,,2013-01-02 02:52:00,
2013-01-01 22:02:00,48.0,48.0,30.08,SE,139,0.0,0.0,100,0.00,,,0.35,,2013-01-02 03:02:00,
2013-01-01 22:12:00,48.0,48.0,30.08,SE,139,0.0,0.0,100,0.00,,,0.35,,2013-01-02 03:12:00,
2013-01-01 22:22:00,48.0,48.0,30.07,SE,139,0.0,0.0,100,0.00,,,0.36,,2013-01-02 03:22:00,
2013-01-01 22:32:00,48.0,48.0,30.08,SE,139,0.0,0.0,100,0.00,,,0.37,,2013-01-02 03:32:00,
2013-01-01 22:42:00,48.0,48.0,30.08,SE,139,0.0,0.0,100,0.00,,,0.37,,2013-01-02 03:42:00,
2013-01-01 22:52:00,48.0,48.0,30.08,SE,139,0.0,0.0,100,0.00,,,0.38,,2013-01-02 03:52:00,
2013-01-01 23:02:00,48.0,48.0,30.08,SE,139,0.0,0.0,100,0.00,,,0.40,,2013-01-02 04:02:00,
2013-01-01 23:12:00,48.0,48.0,30.08,SE,139,0.0,0.0,100,0.00,,,0.40,,2013-01-02 04:12:00,
2013-01-01 23:22:00,48.0,48.0,30.08,SE,139,0.0,0.0,100,0.00,,,0.41,,2013-01-02 04:22:00,
2013-01-01 23:32:00,48.0,48.0,30.07,SE,139,0.0,0.0,100,0.00,,,0.44,,2013-01-02 04:32:00,
2013-01-01 23:42:00,48.0,48.0,30.07,SE,139,0.0,0.0,100,0.00,,,0.44,,2013-01-02 04:42:00,
2013-01-01 23:52:00,48.0,48.0,30.08,SE,139,0.0,0.0,100,0.00,,,0.45,,2013-01-02 04:52:00,